createdAt,value
2022-12-04T00:00:19.598Z,2.92
2022-12-04T00:03:45.253Z,2.94
2022-12-04T00:06:48.333Z,2.95
2022-12-04T00:09:51.361Z,2.96
2022-12-04T00:12:54.297Z,2.98
2022-12-04T00:15:57.299Z,2.99
2022-12-04T00:19:00.385Z,3.00
2022-12-04T00:22:03.389Z,3.01
2022-12-04T00:25:06.619Z,3.02
2022-12-04T00:28:09.608Z,3.03
2022-12-04T00:31:15.340Z,3.03
2022-12-04T00:34:18.630Z,3.04
2022-12-04T00:37:21.643Z,3.04
2022-12-04T00:40:24.598Z,3.05
2022-12-04T00:43:28.876Z,3.05
2022-12-04T00:46:31.894Z,3.06
2022-12-04T00:49:34.837Z,3.06
2022-12-04T00:52:37.855Z,3.07
2022-12-04T00:55:42.704Z,3.07
2022-12-04T00:58:45.971Z,3.08
2022-12-04T01:01:48.966Z,3.08
2022-12-04T01:04:51.983Z,3.08
2022-12-04T01:07:55.271Z,3.08
2022-12-04T01:10:58.294Z,3.08
2022-12-04T01:14:01.829Z,3.07
2022-12-04T01:17:04.842Z,3.07
2022-12-04T01:20:08.320Z,3.07
2022-12-04T01:23:11.244Z,3.07
2022-12-04T01:26:14.471Z,3.07
2022-12-04T01:29:17.483Z,3.06
2022-12-04T01:32:20.744Z,3.06
2022-12-04T01:35:23.823Z,3.07
2022-12-04T01:38:27.378Z,3.07
2022-12-04T01:41:32.297Z,3.07
2022-12-04T01:44:36.834Z,3.07
2022-12-04T01:47:40.069Z,3.07
2022-12-04T01:50:44.875Z,3.06
2022-12-04T01:53:57.705Z,3.05
2022-12-04T01:57:11.681Z,3.04
2022-12-04T02:00:17.302Z,3.03
2022-12-04T02:03:20.406Z,3.02
2022-12-04T02:06:23.407Z,3.02
2022-12-04T02:09:27.375Z,3.02
2022-12-04T02:12:41.692Z,3.02
2022-12-04T02:16:10.047Z,3.02
2022-12-04T02:19:44.323Z,3.03
2022-12-04T02:23:25.226Z,3.04
2022-12-04T02:26:38.080Z,3.05
2022-12-04T02:29:47.870Z,3.05
2022-12-04T02:33:03.670Z,3.06
2022-12-04T02:36:17.173Z,3.06
2022-12-04T02:39:55.332Z,3.06
2022-12-04T02:43:11.471Z,3.06
2022-12-04T02:46:25.252Z,3.06
2022-12-04T02:49:35.242Z,3.05
2022-12-04T02:53:01.801Z,3.04
2022-12-04T02:56:20.147Z,3.03
2022-12-04T02:59:29.741Z,3.01
2022-12-04T03:02:41.088Z,3.00
2022-12-04T03:06:08.074Z,2.98
2022-12-04T03:09:27.943Z,2.96
2022-12-04T03:12:50.473Z,2.94
2022-12-04T03:16:04.223Z,2.91
2022-12-04T03:19:12.771Z,2.88
2022-12-04T03:22:20.919Z,2.87
2022-12-04T03:25:33.088Z,2.85
2022-12-04T03:29:00.923Z,2.84
2022-12-04T03:32:29.811Z,2.84
2022-12-04T03:35:52.459Z,2.83
2022-12-04T03:39:03.009Z,2.81
2022-12-04T03:42:18.727Z,2.81
2022-12-04T03:45:27.297Z,2.79
2022-12-04T03:48:41.354Z,2.79
2022-12-04T03:51:47.280Z,2.78
2022-12-04T03:55:10.947Z,2.79
2022-12-04T03:58:19.891Z,2.80
2022-12-04T04:01:28.766Z,2.80
2022-12-04T04:04:36.007Z,2.79
2022-12-04T04:07:47.825Z,2.80
2022-12-04T04:10:54.864Z,2.81
2022-12-04T04:14:22.396Z,2.81
2022-12-04T04:17:48.970Z,2.81
2022-12-04T04:21:18.228Z,2.82
2022-12-04T04:24:45.387Z,2.83
2022-12-04T04:27:53.699Z,2.83
2022-12-04T04:31:09.304Z,2.83
2022-12-04T04:34:39.233Z,2.84
2022-12-04T04:37:51.294Z,2.85
2022-12-04T04:41:19.636Z,2.86
2022-12-04T04:44:36.667Z,2.87
2022-12-04T04:47:48.905Z,2.89
2022-12-04T04:50:53.505Z,2.90
2022-12-04T04:53:59.399Z,2.91
2022-12-04T04:57:02.364Z,2.93
2022-12-04T05:00:08.876Z,2.94
2022-12-04T05:03:11.929Z,2.94
2022-12-04T05:06:14.934Z,2.95
2022-12-04T05:09:17.841Z,2.95
2022-12-04T05:12:20.854Z,2.95
2022-12-04T05:15:23.806Z,2.94
2022-12-04T05:18:27.523Z,2.93
2022-12-04T05:21:30.900Z,2.92
2022-12-04T05:24:33.833Z,2.91
2022-12-04T05:27:37.102Z,2.90
2022-12-04T05:30:40.558Z,2.89
2022-12-04T05:33:43.574Z,2.89
2022-12-04T05:36:46.607Z,2.88
2022-12-04T05:39:49.538Z,2.89
2022-12-04T05:42:52.665Z,2.88
2022-12-04T05:45:55.629Z,2.87
2022-12-04T05:48:58.582Z,2.86
2022-12-04T05:52:05.433Z,2.85
2022-12-04T05:55:08.812Z,2.83
2022-12-04T05:58:11.881Z,2.81
2022-12-04T06:01:20.636Z,2.79
2022-12-04T06:04:23.804Z,2.77
2022-12-04T06:07:26.847Z,2.75
2022-12-04T06:10:29.948Z,2.73
2022-12-04T06:13:32.898Z,2.71
2022-12-04T06:16:41.793Z,2.70
2022-12-04T06:19:44.785Z,2.68
2022-12-04T06:22:47.737Z,2.66
2022-12-04T06:25:50.711Z,2.65
2022-12-04T06:28:54.945Z,2.62
2022-12-04T06:31:58.377Z,2.60
2022-12-04T06:35:01.867Z,2.58
2022-12-04T06:38:04.898Z,2.57
2022-12-04T06:41:10.503Z,2.56
2022-12-04T06:44:15.022Z,2.55
2022-12-04T06:47:18.184Z,2.53
2022-12-04T06:50:21.271Z,2.53
2022-12-04T06:53:24.236Z,2.52
2022-12-04T06:56:34.968Z,2.52
2022-12-04T06:59:50.919Z,2.51
2022-12-04T07:02:53.916Z,2.50
2022-12-04T07:05:56.980Z,2.50
2022-12-04T07:09:04.388Z,2.49
2022-12-04T07:12:07.483Z,2.49
2022-12-04T07:15:10.644Z,2.50
2022-12-04T07:18:13.640Z,2.51
2022-12-04T07:21:20.885Z,2.52
2022-12-04T07:24:23.964Z,2.53
2022-12-04T07:27:26.946Z,2.55
2022-12-04T07:30:29.954Z,2.55
2022-12-04T07:33:34.342Z,2.56
2022-12-04T07:36:37.241Z,2.57
2022-12-04T07:39:40.222Z,2.57
2022-12-04T07:42:43.146Z,2.59
2022-12-04T07:45:46.115Z,2.61
2022-12-04T07:48:49.128Z,2.64
2022-12-04T07:51:52.022Z,2.67
2022-12-04T07:54:54.949Z,2.67
2022-12-04T07:57:57.891Z,2.69
2022-12-04T08:01:16.341Z,2.70
2022-12-04T08:04:19.489Z,2.70
2022-12-04T08:07:22.422Z,2.71
2022-12-04T08:10:25.317Z,2.71
2022-12-04T08:13:28.265Z,2.73
2022-12-04T08:16:33.092Z,2.73
2022-12-04T08:19:36.143Z,2.74
2022-12-04T08:22:39.044Z,2.73
2022-12-04T08:25:42.232Z,2.73
2022-12-04T08:28:45.674Z,2.74
2022-12-04T08:31:48.852Z,2.75
2022-12-04T08:34:55.652Z,2.76
2022-12-04T08:37:59.138Z,2.77
2022-12-04T08:41:04.810Z,2.79
2022-12-04T08:44:07.925Z,2.80
2022-12-04T08:47:11.378Z,2.81
2022-12-04T08:50:16.068Z,2.84
2022-12-04T08:53:21.048Z,2.87
2022-12-04T08:56:26.562Z,2.89
2022-12-04T08:59:33.190Z,2.93
2022-12-04T09:02:37.743Z,2.97
2022-12-04T09:05:44.404Z,3.03
2022-12-04T09:08:49.405Z,3.08
2022-12-04T09:11:53.880Z,3.13
2022-12-04T09:14:58.572Z,3.18
2022-12-04T09:18:03.988Z,3.23
2022-12-04T09:21:12.932Z,3.27
2022-12-04T09:24:19.048Z,3.31
2022-12-04T09:27:27.669Z,3.35
2022-12-04T09:30:36.971Z,3.40
2022-12-04T09:33:42.194Z,3.44
2022-12-04T09:36:47.211Z,3.48
2022-12-04T09:39:53.587Z,3.52
2022-12-04T09:43:06.402Z,3.57
2022-12-04T09:46:20.298Z,3.60
2022-12-04T09:49:36.887Z,3.62
2022-12-04T09:52:54.702Z,3.64
2022-12-04T09:55:59.152Z,3.66
2022-12-04T09:59:23.146Z,3.68
2022-12-04T10:02:33.790Z,3.70
2022-12-04T10:06:11.718Z,3.72
2022-12-04T10:09:57.990Z,3.73
2022-12-04T10:13:42.968Z,3.71
2022-12-04T10:17:27.827Z,3.72
2022-12-04T10:20:44.474Z,3.75
2022-12-04T10:23:51.027Z,3.79
2022-12-04T10:26:58.173Z,3.83
2022-12-04T10:30:23.859Z,3.88
2022-12-04T10:33:38.501Z,3.92
2022-12-04T10:36:49.507Z,3.96
2022-12-04T10:39:58.439Z,4.02
2022-12-04T10:43:39.869Z,4.08
2022-12-04T10:46:45.937Z,4.10
2022-12-04T10:49:56.882Z,4.12
2022-12-04T10:53:00.430Z,4.14
2022-12-04T10:56:10.909Z,4.16
2022-12-04T10:59:15.704Z,4.17
2022-12-04T11:02:29.236Z,4.22
2022-12-04T11:05:43.590Z,4.25
2022-12-04T11:08:52.048Z,4.28
2022-12-04T11:12:07.445Z,4.31
2022-12-04T11:15:16.714Z,4.33
2022-12-04T11:18:25.413Z,4.34
2022-12-04T11:21:33.395Z,4.35
2022-12-04T11:24:41.042Z,4.38
2022-12-04T11:27:48.873Z,4.44
2022-12-04T11:30:56.006Z,4.51
2022-12-04T11:34:07.701Z,4.58
2022-12-04T11:37:33.934Z,4.65
2022-12-04T11:40:37.824Z,4.72
2022-12-04T11:43:50.867Z,4.77
2022-12-04T11:46:58.850Z,4.84
2022-12-04T11:50:13.811Z,4.91
2022-12-04T11:53:20.640Z,4.96
2022-12-04T11:56:30.283Z,5.01
2022-12-04T11:59:46.807Z,5.04
2022-12-04T12:03:06.313Z,5.07
2022-12-04T12:06:19.298Z,5.09
2022-12-04T12:09:43.695Z,5.11
2022-12-04T12:13:16.227Z,5.12
2022-12-04T12:16:26.185Z,5.13
2022-12-04T12:20:40.029Z,5.13
2022-12-04T12:24:00.342Z,5.13
2022-12-04T12:27:54.890Z,5.14
2022-12-04T12:31:19.698Z,5.13
2022-12-04T12:34:34.413Z,5.12
2022-12-04T12:37:46.570Z,5.10
2022-12-04T12:41:15.604Z,5.07
2022-12-04T12:44:25.442Z,5.04
2022-12-04T12:47:37.862Z,5.01
2022-12-04T12:50:43.661Z,4.98
2022-12-04T12:53:51.331Z,4.95
2022-12-04T12:57:18.634Z,4.93
2022-12-04T13:00:23.893Z,4.89
2022-12-04T13:04:02.811Z,4.85
2022-12-04T13:07:17.847Z,4.81
2022-12-04T13:10:30.451Z,4.78
2022-12-04T13:13:39.296Z,4.73
2022-12-04T13:16:50.979Z,4.68
2022-12-04T13:19:58.178Z,4.65
2022-12-04T13:23:16.675Z,4.61
2022-12-04T13:26:57.358Z,4.56
2022-12-04T13:30:12.179Z,4.51
2022-12-04T13:33:52.414Z,4.46
2022-12-04T13:37:15.637Z,4.40
2022-12-04T13:40:59.880Z,4.37
2022-12-04T13:44:12.334Z,4.32
2022-12-04T13:47:31.752Z,4.28
2022-12-04T13:50:37.894Z,4.25
2022-12-04T13:53:42.766Z,4.21
2022-12-04T13:56:55.522Z,4.17
2022-12-04T14:00:08.225Z,4.13
2022-12-04T14:03:37.382Z,4.10
2022-12-04T14:06:43.573Z,4.07
2022-12-04T14:09:53.350Z,4.04
2022-12-04T14:13:21.876Z,4.02
2022-12-04T14:16:30.886Z,3.98
2022-12-04T14:19:37.525Z,3.94
2022-12-04T14:22:43.613Z,3.93
2022-12-04T14:25:46.644Z,3.92
2022-12-04T14:28:50.488Z,3.90
2022-12-04T14:31:55.743Z,3.88
2022-12-04T14:34:59.347Z,3.86
2022-12-04T14:38:05.825Z,3.84
2022-12-04T14:41:08.791Z,3.83
2022-12-04T14:44:27.724Z,3.82
2022-12-04T14:47:42.743Z,3.80
2022-12-04T14:50:57.496Z,3.78
2022-12-04T14:54:28.490Z,3.75
2022-12-04T14:57:44.431Z,3.74
2022-12-04T15:00:55.267Z,3.71
2022-12-04T15:04:05.117Z,3.70
2022-12-04T15:07:09.150Z,3.69
2022-12-04T15:11:06.572Z,3.67
2022-12-04T15:14:13.880Z,3.67
2022-12-04T15:17:20.043Z,3.67
2022-12-04T15:20:38.640Z,3.67
2022-12-04T15:23:42.538Z,3.66
2022-12-04T15:26:47.169Z,3.65
2022-12-04T15:29:54.129Z,3.63
2022-12-04T15:32:58.113Z,3.62
2022-12-04T15:36:08.833Z,3.61
2022-12-04T15:39:20.213Z,3.61
2022-12-04T15:42:23.121Z,3.62
2022-12-04T15:45:31.707Z,3.62
2022-12-04T15:48:34.701Z,3.60
2022-12-04T15:51:37.623Z,3.60
2022-12-04T15:54:57.167Z,3.61
2022-12-04T15:58:08.862Z,3.62
2022-12-04T16:01:15.635Z,3.62
2022-12-04T16:04:23.558Z,3.62
2022-12-04T16:07:29.395Z,3.62
2022-12-04T16:10:35.001Z,3.61
2022-12-04T16:13:39.075Z,3.61
2022-12-04T16:16:46.245Z,3.60
2022-12-04T16:19:49.996Z,3.61
2022-12-04T16:22:54.900Z,3.61
2022-12-04T16:25:58.318Z,3.62
2022-12-04T16:29:01.421Z,3.62
2022-12-04T16:32:05.423Z,3.62
2022-12-04T16:35:15.933Z,3.61
2022-12-04T16:38:18.931Z,3.62
2022-12-04T16:41:21.863Z,3.61
2022-12-04T16:44:24.930Z,3.61
2022-12-04T16:47:28.142Z,3.61
2022-12-04T16:50:31.196Z,3.61
2022-12-04T16:53:34.091Z,3.61
2022-12-04T16:56:39.920Z,3.61
2022-12-04T16:59:43.000Z,3.62
2022-12-04T17:02:46.367Z,3.63
2022-12-04T17:05:49.390Z,3.63
2022-12-04T17:08:54.540Z,3.64
2022-12-04T17:11:57.841Z,3.65
2022-12-04T17:15:01.015Z,3.64
2022-12-04T17:18:11.164Z,3.64
2022-12-04T17:21:16.326Z,3.63
2022-12-04T17:24:19.884Z,3.62
2022-12-04T17:27:24.528Z,3.62
2022-12-04T17:30:31.489Z,3.60
2022-12-04T17:33:38.629Z,3.60
2022-12-04T17:36:41.566Z,3.60
2022-12-04T17:39:44.587Z,3.62
2022-12-04T17:42:47.598Z,4.11
2022-12-04T17:45:50.884Z,4.40
2022-12-04T17:48:56.652Z,4.38
2022-12-04T17:52:00.045Z,4.28
2022-12-04T17:55:03.676Z,4.18
2022-12-04T17:58:06.992Z,4.09
2022-12-04T18:01:16.275Z,4.01
2022-12-04T18:04:20.195Z,3.97
2022-12-04T18:07:23.324Z,3.93
2022-12-04T18:10:26.427Z,3.90
2022-12-04T18:13:29.847Z,3.88
2022-12-04T18:16:35.546Z,3.84
2022-12-04T18:19:38.577Z,3.81
2022-12-04T18:22:41.637Z,3.78
2022-12-04T18:25:54.644Z,3.75
2022-12-04T18:28:57.754Z,3.71
2022-12-04T18:32:00.892Z,3.68
2022-12-04T18:35:04.173Z,3.65
2022-12-04T18:38:07.223Z,3.62
2022-12-04T18:41:13.406Z,3.59
2022-12-04T18:44:17.597Z,3.58
2022-12-04T18:47:20.583Z,3.57
2022-12-04T18:50:23.519Z,3.56
2022-12-04T18:53:26.964Z,3.55
2022-12-04T18:56:30.627Z,3.54
2022-12-04T18:59:33.684Z,3.54
2022-12-04T19:02:37.035Z,3.54
2022-12-04T19:05:48.815Z,3.53
2022-12-04T19:08:51.806Z,3.53
2022-12-04T19:11:54.804Z,3.51
2022-12-04T19:14:57.914Z,3.49
2022-12-04T19:18:00.940Z,3.48
2022-12-04T19:21:08.235Z,3.46
2022-12-04T19:24:12.378Z,3.44
2022-12-04T19:27:15.406Z,3.43
2022-12-04T19:30:18.466Z,3.41
2022-12-04T19:33:22.912Z,3.40
2022-12-04T19:36:28.068Z,3.39
2022-12-04T19:39:31.106Z,3.39
2022-12-04T19:42:34.214Z,3.38
2022-12-04T19:45:37.238Z,3.39
2022-12-04T19:48:41.091Z,3.38
2022-12-04T19:51:44.236Z,3.38
2022-12-04T19:54:47.225Z,3.36
2022-12-04T19:57:50.207Z,3.34
2022-12-04T20:00:55.682Z,3.34
2022-12-04T20:04:02.648Z,3.34
2022-12-04T20:07:06.171Z,3.34
2022-12-04T20:10:09.478Z,3.34
2022-12-04T20:13:12.622Z,3.35
2022-12-04T20:16:18.393Z,3.34
2022-12-04T20:19:21.472Z,3.32
2022-12-04T20:22:24.433Z,3.32
2022-12-04T20:25:27.447Z,3.33
2022-12-04T20:28:30.452Z,3.33
2022-12-04T20:31:57.824Z,3.33
2022-12-04T20:35:00.831Z,3.32
2022-12-04T20:38:05.572Z,3.33
2022-12-04T20:41:10.753Z,3.33
2022-12-04T20:44:16.205Z,3.33
2022-12-04T20:47:19.320Z,3.32
2022-12-04T20:50:22.356Z,3.32
2022-12-04T20:53:25.307Z,3.33
2022-12-04T20:56:31.063Z,3.33
2022-12-04T20:59:34.063Z,3.33
2022-12-04T21:02:37.215Z,3.33
2022-12-04T21:05:40.451Z,3.32
2022-12-04T21:09:00.625Z,3.32
2022-12-04T21:12:24.700Z,3.31
2022-12-04T21:15:46.470Z,3.29
2022-12-04T21:18:49.996Z,3.29
2022-12-04T21:21:53.582Z,3.29
2022-12-04T21:24:56.516Z,3.28
2022-12-04T21:27:59.546Z,3.28
2022-12-04T21:31:07.159Z,3.28
2022-12-04T21:34:12.591Z,3.28
2022-12-04T21:37:15.609Z,3.27
2022-12-04T21:40:18.999Z,3.26
2022-12-04T21:43:22.014Z,3.26
2022-12-04T21:46:25.019Z,3.25
2022-12-04T21:49:28.518Z,3.22
2022-12-04T21:52:31.536Z,3.19
2022-12-04T21:55:34.590Z,3.17
2022-12-04T21:58:37.523Z,3.16
2022-12-04T22:01:41.813Z,3.14
2022-12-04T22:04:44.912Z,3.13
2022-12-04T22:07:47.981Z,3.12
2022-12-04T22:10:51.011Z,3.12
2022-12-04T22:13:53.911Z,3.11
2022-12-04T22:16:57.125Z,3.10
2022-12-04T22:20:00.133Z,3.11
2022-12-04T22:23:03.362Z,3.11
2022-12-04T22:26:14.777Z,3.12
2022-12-04T22:29:48.477Z,3.11
2022-12-04T22:32:40.573Z,3.12
2022-12-04T22:35:43.503Z,3.11
2022-12-04T22:39:08.132Z,3.12
2022-12-04T22:42:09.646Z,3.12
2022-12-04T22:45:12.677Z,3.10
2022-12-04T22:48:15.664Z,3.10
2022-12-04T22:51:22.542Z,3.11
2022-12-04T22:54:25.427Z,3.12
2022-12-04T22:57:28.963Z,3.12
2022-12-04T23:00:31.892Z,3.12
2022-12-04T23:03:34.954Z,3.12
2022-12-04T23:06:38.125Z,3.12
2022-12-04T23:09:41.233Z,3.11
2022-12-04T23:12:44.325Z,3.11
2022-12-04T23:15:49.388Z,3.10
2022-12-04T23:18:52.823Z,3.09
2022-12-04T23:21:57.439Z,3.07
2022-12-04T23:25:01.026Z,3.06
2022-12-04T23:28:04.072Z,3.06
2022-12-04T23:31:07.477Z,3.05
2022-12-04T23:34:10.469Z,3.04
2022-12-04T23:37:13.454Z,3.04
2022-12-04T23:40:16.447Z,3.02
2022-12-04T23:43:20.608Z,3.00
2022-12-04T23:46:31.313Z,2.98
2022-12-04T23:49:34.396Z,2.97
2022-12-04T23:52:37.298Z,2.96
2022-12-04T23:55:40.293Z,2.95
2022-12-04T23:58:44.893Z,2.94
